Time;durP1;ratioP1;P1;durP2;ratioP2;P2;SDS_P1;SDS_P2;PMS_P1;PMS_P2;Temp;Humidity;BMP_temperature;BMP_pressure;BME280_temperature;BME280_humidity;BME280_pressure;Samples;Min_cycle;Max_cycle;Signal;HPM_P1;HPM_P2
2022/06/17 00:01:59;;;;;;;7.32;3.80;;;;;;;15.37;66.22;102252.34;5047361;28;20041;-75
2022/06/17 00:04:26;;;;;;;6.18;4.15;;;;;;;15.33;66.20;102253.31;5045023;28;20104;-76
2022/06/17 00:07:12;;;;;;;8.35;4.53;;;;;;;15.29;66.45;102255.19;5036230;28;20049;-75
2022/06/17 00:09:40;;;;;;;5.60;4.03;;;;;;;15.27;66.79;102249.06;5045166;28;20507;-75
2022/06/17 00:12:12;;;;;;;6.55;3.92;;;;;;;15.25;66.88;102248.25;5037076;28;20064;-75
2022/06/17 00:17:26;;;;;;;5.20;4.32;;;;;;;15.22;66.99;102243.88;5038929;28;20041;-77
2022/06/17 00:19:53;;;;;;;5.95;4.20;;;;;;;15.22;66.86;102237.69;5037614;28;20050;-76
2022/06/17 00:22:21;;;;;;;5.13;4.30;;;;;;;15.21;66.76;102246.56;5048005;28;20044;-76
2022/06/17 00:24:53;;;;;;;5.50;3.97;;;;;;;15.23;66.93;102250.06;5039488;28;20594;-77
2022/06/17 00:27:20;;;;;;;6.30;4.70;;;;;;;15.25;67.25;102253.56;5031458;28;20046;-77
2022/06/17 00:29:47;;;;;;;8.73;4.90;;;;;;;15.30;67.01;102250.78;5044182;28;20056;-76
2022/06/17 00:32:14;;;;;;;7.03;3.92;;;;;;;15.32;67.00;102249.81;5037514;28;20551;-78
2022/06/17 00:34:42;;;;;;;5.68;4.65;;;;;;;15.34;66.82;102253.31;5036267;28;20050;-76
2022/06/17 00:37:14;;;;;;;9.60;4.65;;;;;;;15.33;66.91;102251.56;5037629;28;20045;-76
2022/06/17 00:39:42;;;;;;;5.60;4.50;;;;;;;15.36;66.95;102254.09;5046309;28;20050;-76
2022/06/17 00:42:14;;;;;;;5.78;4.18;;;;;;;15.35;67.10;102257.72;5047875;28;20049;-78
2022/06/17 00:45:05;;;;;;;7.80;4.43;;;;;;;15.37;67.40;102262.97;5033560;28;20488;-76
2022/06/17 00:47:41;;;;;;;6.97;4.57;;;;;;;15.40;67.21;102267.31;5021521;28;20045;-77
2022/06/17 00:50:30;;;;;;;6.72;4.53;;;;;;;15.42;67.07;102265.50;5038899;28;20520;-78
2022/06/17 00:53:05;;;;;;;5.95;4.07;;;;;;;15.42;67.02;102260.19;5031930;28;20124;-79
2022/06/17 00:55:39;;;;;;;5.63;4.22;;;;;;;15.42;67.31;102254.88;5034564;28;20522;-79
2022/06/17 00:58:17;;;;;;;6.22;4.35;;;;;;;15.42;67.51;102253.06;5047653;28;20048;-79
2022/06/17 01:00:46;;;;;;;6.28;4.55;;;;;;;15.42;67.31;102258.38;5032354;28;20045;-80
2022/06/17 01:03:23;;;;;;;7.03;4.30;;;;;;;15.45;67.60;102268.06;5033913;28;20042;-79
2022/06/17 01:06:04;;;;;;;6.22;4.55;;;;;;;15.46;67.97;102268.03;5031812;28;20528;-80
2022/06/17 01:11:29;;;;;;;5.85;4.63;;;;;;;15.43;68.18;102268.09;5046574;28;20046;-80
2022/06/17 01:14:00;;;;;;;5.60;4.97;;;;;;;15.42;68.30;102261.03;5044187;28;20089;-79
2022/06/17 01:16:32;;;;;;;7.70;4.80;;;;;;;15.43;67.92;102261.94;5048927;28;20081;-80
2022/06/17 01:19:31;;;;;;;5.13;4.38;;;;;;;15.42;68.09;102266.34;5044366;28;20038;-79
2022/06/17 01:22:13;;;;;;;5.65;4.40;;;;;;;15.39;68.63;102258.50;5052722;28;20042;-81
2022/06/17 01:24:44;;;;;;;6.82;5.10;;;;;;;15.37;68.51;102261.16;5046629;28;20044;-80
2022/06/17 01:27:17;;;;;;;7.80;4.32;;;;;;;15.35;68.68;102265.69;5035211;28;20042;-80
2022/06/17 01:29:44;;;;;;;5.30;4.57;;;;;;;15.34;68.73;102260.38;5054040;28;20076;-78
2022/06/17 01:32:13;;;;;;;6.50;4.55;;;;;;;15.34;68.52;102263.94;5038322;28;20042;-75
2022/06/17 01:34:41;;;;;;;5.75;4.80;;;;;;;15.35;68.40;102262.13;5041725;28;20059;-76
2022/06/17 01:37:11;;;;;;;7.38;4.90;;;;;;;15.33;68.30;102267.50;5043305;28;20096;-74
2022/06/17 01:39:41;;;;;;;6.47;4.90;;;;;;;15.31;67.99;102273.78;5053467;28;20584;-76
2022/06/17 01:42:10;;;;;;;6.13;5.00;;;;;;;15.26;67.97;102263.25;5052974;28;20113;-75
2022/06/17 01:44:41;;;;;;;6.90;5.25;;;;;;;15.24;68.25;102262.44;5035830;28;20042;-75
2022/06/17 01:47:18;;;;;;;6.93;5.40;;;;;;;15.20;68.07;102260.78;5038489;28;20065;-75
2022/06/17 01:49:57;;;;;;;7.95;5.30;;;;;;;15.17;68.08;102255.53;5039756;28;20049;-76
2022/06/17 01:52:46;;;;;;;6.10;5.47;;;;;;;15.11;68.46;102251.25;5033943;28;20049;-76
2022/06/17 01:55:33;;;;;;;6.93;6.22;;;;;;;15.10;69.69;102251.31;5045877;28;20060;-74
2022/06/17 01:58:17;;;;;;;9.27;7.25;;;;;;;15.11;69.49;102255.72;5045214;28;20483;-77
2022/06/17 02:00:45;;;;;;;10.13;6.95;;;;;;;15.07;69.26;102250.47;5044185;28;20045;-77
2022/06/17 02:03:28;;;;;;;9.80;6.57;;;;;;;15.09;68.87;102257.53;5049070;28;20050;-76
2022/06/17 02:06:14;;;;;;;9.20;7.00;;;;;;;15.12;68.43;102257.47;5035451;28;20901;-76
2022/06/17 02:08:42;;;;;;;7.85;6.28;;;;;;;15.12;68.21;102254.81;5038137;28;20037;-76
2022/06/17 02:11:14;;;;;;;8.80;6.50;;;;;;;15.13;68.16;102256.53;5048268;28;20045;-79
2022/06/17 02:13:47;;;;;;;8.00;6.15;;;;;;;15.13;68.01;102249.44;5036608;28;20128;-78
2022/06/17 02:16:48;;;;;;;12.98;6.97;;;;;;;15.09;67.89;102250.44;5048781;28;20808;-78
2022/06/17 02:19:45;;;;;;;10.52;6.72;;;;;;;15.07;67.60;102254.94;5046896;28;20038;-79
2022/06/17 02:22:25;;;;;;;8.55;6.70;;;;;;;15.04;67.95;102247.91;5033592;28;20511;-79
2022/06/17 02:25:12;;;;;;;7.43;6.63;;;;;;;14.98;68.20;102248.06;5047069;28;20049;-76
2022/06/17 02:27:43;;;;;;;10.52;5.82;;;;;;;14.96;68.55;102247.22;5033268;28;20310;-76
2022/06/17 02:30:14;;;;;;;9.35;6.55;;;;;;;14.94;68.75;102241.13;5032776;28;20041;-76
2022/06/17 02:32:43;;;;;;;10.15;6.60;;;;;;;14.93;69.19;102246.44;5033024;28;20618;-77
2022/06/17 02:35:38;;;;;;;10.70;7.88;;;;;;;14.96;69.22;102243.72;5041222;28;20041;-76
2022/06/17 02:38:10;;;;;;;8.23;6.97;;;;;;;14.99;68.92;102246.28;5049875;28;20046;-77
2022/06/17 02:40:43;;;;;;;8.32;7.00;;;;;;;14.99;68.78;102244.50;5042922;28;20093;-76
2022/06/17 02:43:22;;;;;;;9.90;7.53;;;;;;;15.02;68.65;102252.41;5033269;28;20077;-76
2022/06/17 02:46:04;;;;;;;21.35;8.18;;;;;;;15.04;68.26;102257.66;5031172;28;20092;-75
2022/06/17 02:49:12;;;;;;;11.60;7.65;;;;;;;15.06;68.33;102266.47;5031642;28;20038;-76
2022/06/17 02:51:42;;;;;;;9.07;7.07;;;;;;;15.06;68.63;102258.50;5036083;28;20054;-75
2022/06/17 02:54:35;;;;;;;8.80;7.80;;;;;;;15.08;68.49;102256.66;5039021;28;20038;-76
2022/06/17 02:57:09;;;;;;;12.23;7.82;;;;;;;15.07;68.40;102265.56;5038788;28;20049;-77
2022/06/17 02:59:45;;;;;;;10.23;7.53;;;;;;;15.05;68.17;102254.97;5039502;28;20133;-77
2022/06/17 03:02:31;;;;;;;9.02;7.38;;;;;;;15.03;67.83;102247.94;5040950;28;20121;-78
2022/06/17 03:05:01;;;;;;;7.75;6.80;;;;;;;14.98;67.74;102258.69;5042208;28;20045;-78
2022/06/17 03:07:31;;;;;;;9.82;7.07;;;;;;;14.95;68.30;102248.16;5040221;28;20494;-77
2022/06/17 03:10:38;;;;;;;13.25;8.02;;;;;;;14.90;68.10;102256.22;5052629;28;20045;-78
2022/06/17 03:13:17;;;;;;;8.43;6.85;;;;;;;14.83;68.21;102252.00;5041754;28;20125;-77
2022/06/17 03:15:48;;;;;;;8.90;8.00;;;;;;;14.74;68.48;102250.47;5037330;28;20556;-77
2022/06/17 03:18:17;;;;;;;9.85;7.68;;;;;;;14.70;68.88;102259.41;5041748;28;20096;-77
2022/06/17 03:20:48;;;;;;;9.18;7.28;;;;;;;14.65;69.05;102252.44;5045329;28;20041;-76
2022/06/17 03:23:26;;;;;;;10.05;8.00;;;;;;;14.60;69.18;102245.44;5033917;28;20049;-77
2022/06/17 03:26:06;;;;;;;9.05;7.18;;;;;;;14.55;69.18;102247.34;5042348;28;20056;-79
2022/06/17 03:28:44;;;;;;;9.90;8.25;;;;;;;14.53;69.56;102248.31;5050158;28;20585;-77
2022/06/17 03:31:22;;;;;;;9.73;7.63;;;;;;;14.48;69.35;102258.16;5033764;28;20153;-77
2022/06/17 03:33:56;;;;;;;10.50;7.57;;;;;;;14.45;69.40;102264.41;5041188;28;20049;-78
2022/06/17 03:36:32;;;;;;;10.43;8.60;;;;;;;14.47;69.71;102265.25;5045515;28;20053;-76
2022/06/17 03:39:12;;;;;;;10.02;8.02;;;;;;;14.50;69.57;102266.94;5050322;28;20162;-78
2022/06/17 03:42:05;;;;;;;10.45;8.35;;;;;;;14.50;69.63;102273.13;5051610;28;20045;-78
2022/06/17 03:44:44;;;;;;;9.98;8.18;;;;;;;14.50;70.28;102280.22;5050206;28;20100;-77
2022/06/17 03:47:47;;;;;;;9.93;8.02;;;;;;;14.49;70.15;102279.34;5042088;28;20056;-77
2022/06/17 03:50:28;;;;;;;11.27;7.53;;;;;;;14.49;70.11;102289.09;5035435;28;20052;-76
2022/06/17 03:53:15;;;;;;;14.15;8.32;;;;;;;14.50;70.58;102280.22;5032495;28;20058;-76
2022/06/17 03:55:43;;;;;;;11.00;7.85;;;;;;;14.51;70.91;102287.28;5045103;28;20071;-74
2022/06/17 03:58:17;;;;;;;13.10;8.02;;;;;;;14.55;70.58;102291.59;5046521;28;20099;-75
2022/06/17 04:01:11;;;;;;;10.37;7.87;;;;;;;14.62;70.59;102294.97;5047351;28;20060;-74
2022/06/17 04:03:51;;;;;;;11.43;7.97;;;;;;;14.68;71.06;102286.91;5047371;28;20057;-78
2022/06/17 04:06:31;;;;;;;9.38;7.75;;;;;;;14.88;70.64;102291.69;5040253;28;20053;-78
2022/06/17 04:09:13;;;;;;;9.43;7.50;;;;;;;15.21;69.56;102294.41;5040466;28;20042;-79
2022/06/17 04:11:57;;;;;;;12.10;7.93;;;;;;;15.30;69.40;102293.28;5047207;28;20052;-78
2022/06/17 04:14:51;;;;;;;7.85;7.05;;;;;;;15.42;69.10;102294.72;5036848;28;20938;-80
2022/06/17 04:17:42;;;;;;;10.50;7.40;;;;;;;15.57;68.89;102293.44;5041787;28;20113;-82
2022/06/17 04:20:44;;;;;;;10.90;7.55;;;;;;;15.77;68.61;102295.53;5035091;28;20050;-78
2022/06/17 04:23:19;;;;;;;9.82;7.28;;;;;;;15.94;68.28;102292.38;5040164;28;20065;-79
2022/06/17 04:26:28;;;;;;;14.13;8.13;;;;;;;16.09;68.00;102283.06;5041417;28;20096;-78
2022/06/17 04:29:05;;;;;;;10.20;7.75;;;;;;;16.30;67.64;102279.75;5035294;28;20072;-76
2022/06/17 04:31:34;;;;;;;11.35;8.40;;;;;;;16.44;67.07;102273.97;5043077;28;20044;-79
2022/06/17 04:34:20;;;;;;;12.00;8.95;;;;;;;16.58;66.66;102277.97;5048640;28;20049;-77
2022/06/17 04:37:03;;;;;;;9.60;8.00;;;;;;;16.66;66.53;102275.94;5045782;28;20033;-78
2022/06/17 04:39:52;;;;;;;12.57;8.75;;;;;;;16.77;66.16;102268.47;5048290;28;20042;-77
2022/06/17 04:42:41;;;;;;;;;;;;;;;16.85;66.04;102264.66;5049390;28;20180;-78
2022/06/17 04:45:27;;;;;;;23.02;8.80;;;;;;;16.95;65.72;102266.09;5043773;28;19932;-75
2022/06/17 04:48:01;;;;;;;10.23;8.55;;;;;;;16.99;65.74;102257.09;5030605;28;20046;-77
2022/06/17 04:50:31;;;;;;;10.13;8.57;;;;;;;17.02;65.38;102259.66;5038933;28;20050;-73
2022/06/17 04:52:58;;;;;;;11.15;8.52;;;;;;;17.05;65.17;102259.53;5053707;28;20060;-77
2022/06/17 04:55:41;;;;;;;13.45;7.93;;;;;;;17.10;65.31;102255.84;5031696;28;20046;-79
2022/06/17 04:58:31;;;;;;;10.55;7.70;;;;;;;17.11;65.36;102257.59;5058245;28;20038;-78
2022/06/17 05:01:17;;;;;;;10.85;8.02;;;;;;;17.14;65.56;102257.50;5051700;28;20037;-77
2022/06/17 05:04:03;;;;;;;12.18;8.27;;;;;;;17.14;65.61;102253.03;5049374;28;20037;-77
2022/06/17 05:06:54;;;;;;;17.15;8.02;;;;;;;17.20;65.07;102260.78;5050993;28;20049;-78
2022/06/17 05:09:37;;;;;;;20.90;7.75;;;;;;;17.27;64.94;102258.78;5044945;28;20554;-77
2022/06/17 05:12:36;;;;;;;11.15;7.50;;;;;;;17.36;64.60;102254.91;5049240;28;20519;-78
2022/06/17 05:15:06;;;;;;;16.45;8.15;;;;;;;17.45;64.41;102254.59;5054254;28;20593;-77
2022/06/17 05:17:35;;;;;;;10.93;7.30;;;;;;;17.54;64.34;102256.91;5052571;28;20549;-77
2022/06/17 05:20:04;;;;;;;11.73;7.65;;;;;;;17.65;64.16;102253.81;5064062;28;20581;-77
2022/06/17 05:22:38;;;;;;;26.85;8.65;;;;;;;17.76;63.63;102250.75;5050484;28;20043;-76
2022/06/17 05:25:15;;;;;;;19.60;8.30;;;;;;;17.86;63.36;102267.25;5051473;28;20042;-76
2022/06/17 05:27:44;;;;;;;12.50;7.28;;;;;;;17.88;63.47;102249.41;5045686;28;20136;-76
2022/06/17 05:30:13;;;;;;;11.80;7.22;;;;;;;17.98;62.94;102250.81;5048377;28;20038;-77
2022/06/17 05:32:49;;;;;;;11.88;7.10;;;;;;;18.15;62.49;102251.97;5047816;28;20046;-77
2022/06/17 05:35:27;;;;;;;9.23;5.97;;;;;;;19.40;59.77;102240.47;5051076;28;20079;-76
2022/06/17 05:37:58;;;;;;;9.30;6.90;;;;;;;20.24;57.57;102236.56;5045799;28;20120;-77
2022/06/17 05:40:26;;;;;;;17.55;6.85;;;;;;;20.58;56.65;102237.56;5048790;28;20049;-76
2022/06/17 05:42:53;;;;;;;11.35;6.82;;;;;;;21.22;54.92;102237.84;5051777;28;20037;-77
2022/06/17 05:45:26;;;;;;;9.25;6.50;;;;;;;22.61;52.12;102240.88;5045623;28;20034;-74
2022/06/17 05:48:07;;;;;;;11.77;6.55;;;;;;;25.17;46.64;102242.50;5053151;28;20052;-78
2022/06/17 05:50:48;;;;;;;8.82;5.75;;;;;;;26.96;42.19;102229.31;5045862;28;20085;-78
2022/06/17 05:53:29;;;;;;;9.68;5.88;;;;;;;28.56;38.83;102229.91;5063019;28;20042;-76
2022/06/17 05:56:16;;;;;;;11.07;5.35;;;;;;;29.82;35.78;102229.81;5045226;28;20059;-77
2022/06/17 05:58:44;;;;;;;6.85;4.78;;;;;;;30.79;33.99;102230.84;5052512;28;20042;-78
2022/06/17 06:01:12;;;;;;;10.98;5.28;;;;;;;31.65;32.52;102237.13;5043729;28;20042;-79
2022/06/17 06:03:40;;;;;;;12.05;5.07;;;;;;;32.44;31.14;102229.28;5039606;28;20049;-76
2022/06/17 06:06:08;;;;;;;8.82;4.68;;;;;;;32.79;30.41;102222.91;5045775;28;20046;-78
2022/06/17 06:08:35;;;;;;;10.10;5.40;;;;;;;32.51;30.14;102236.66;5051300;28;20034;-78
2022/06/17 06:11:05;;;;;;;12.02;4.97;;;;;;;31.81;30.73;102234.59;5045839;28;20455;-78
2022/06/17 06:13:37;;;;;;;8.98;4.72;;;;;;;31.68;31.03;102234.13;5048790;28;20679;-77
2022/06/17 06:16:05;;;;;;;10.15;4.75;;;;;;;31.46;31.19;102233.50;5053071;28;20052;-78
2022/06/17 06:18:39;;;;;;;9.10;4.10;;;;;;;31.67;30.55;102229.66;5035486;28;20394;-78
2022/06/17 06:21:12;;;;;;;7.07;4.30;;;;;;;31.13;31.10;102230.34;5032949;28;20037;-78
2022/06/17 06:23:44;;;;;;;5.70;4.45;;;;;;;29.50;32.94;102222.72;5049658;28;20771;-78
2022/06/17 06:26:20;;;;;;;9.43;5.00;;;;;;;28.14;35.40;102233.41;5049048;28;20053;-79
2022/06/17 06:29:06;;;;;;;8.02;4.18;;;;;;;26.98;36.90;102234.59;5053373;28;20052;-77
2022/06/17 06:31:38;;;;;;;9.48;4.45;;;;;;;26.12;38.59;102229.38;5051847;28;20511;-78
2022/06/17 06:34:20;;;;;;;26.42;5.70;;;;;;;25.39;40.81;102226.47;5051929;28;20037;-78
2022/06/17 06:36:48;;;;;;;11.75;4.93;;;;;;;24.94;41.51;102224.25;5051330;28;20136;-75
2022/06/17 06:39:15;;;;;;;11.60;4.38;;;;;;;24.58;41.86;102219.53;5051998;28;20045;-77
2022/06/17 06:41:42;;;;;;;8.02;4.00;;;;;;;24.31;42.46;102223.16;5045564;28;20068;-75
2022/06/17 06:44:10;;;;;;;5.50;3.95;;;;;;;24.13;43.33;102222.53;5048438;28;20469;-75
2022/06/17 06:47:05;;;;;;;12.02;4.15;;;;;;;24.07;44.05;102225.66;5031356;28;20034;-76
2022/06/17 06:49:56;;;;;;;10.65;4.38;;;;;;;24.06;43.62;102222.09;5032831;28;20048;-76
2022/06/17 06:52:25;;;;;;;8.85;4.18;;;;;;;24.05;43.63;102228.44;5048562;28;20056;-76
2022/06/17 06:54:52;;;;;;;10.65;4.50;;;;;;;23.95;44.22;102224.63;5031925;28;20037;-75
2022/06/17 06:57:19;;;;;;;9.95;4.20;;;;;;;23.88;44.64;102226.81;5041495;28;20128;-77
2022/06/17 07:00:06;;;;;;;33.83;6.50;;;;;;;23.92;44.54;102233.72;5031029;28;20390;-75
2022/06/17 07:02:34;;;;;;;19.70;5.22;;;;;;;24.05;44.16;102239.22;5045862;28;20038;-77
2022/06/17 07:05:02;;;;;;;16.02;4.45;;;;;;;24.26;44.63;102241.47;5050545;28;20084;-78
2022/06/17 07:07:39;;;;;;;8.18;4.10;;;;;;;24.47;44.50;102229.22;5040655;28;20073;-76
2022/06/17 07:10:16;;;;;;;8.23;4.00;;;;;;;24.61;42.99;102216.63;5052937;28;20049;-76
2022/06/17 07:12:44;;;;;;;10.95;4.32;;;;;;;24.73;42.48;102212.25;5047472;28;20052;-80
2022/06/17 07:15:13;;;;;;;14.73;4.15;;;;;;;24.76;43.03;102214.75;5050803;28;20049;-76
2022/06/17 07:18:12;;;;;;;13.63;4.45;;;;;;;24.72;42.91;102210.56;5051546;28;20091;-78
2022/06/17 07:20:47;;;;;;;11.93;4.22;;;;;;;24.71;43.16;102220.47;5052779;28;20120;-78
2022/06/17 07:23:33;;;;;;;19.88;5.00;;;;;;;24.75;42.42;102213.91;5052895;28;20120;-77
2022/06/17 07:26:07;;;;;;;9.40;3.33;;;;;;;24.74;41.80;102206.78;5051264;28;20045;-78
2022/06/17 07:28:35;;;;;;;14.70;4.15;;;;;;;24.70;42.24;102215.19;5045304;28;20045;-78
2022/06/17 07:31:03;;;;;;;11.13;4.28;;;;;;;24.61;42.16;102212.13;5047031;28;20500;-78
2022/06/17 07:33:34;;;;;;;15.35;4.47;;;;;;;24.55;42.49;102209.84;5032813;28;20057;-78
2022/06/17 07:36:04;;;;;;;10.13;3.53;;;;;;;24.51;42.18;102208.34;5035940;28;20099;-77
2022/06/17 07:41:25;;;;;;;18.75;4.78;;;;;;;24.46;42.59;102211.34;5042605;28;20120;-77
2022/06/17 07:43:53;;;;;;;8.73;3.50;;;;;;;24.44;42.97;102202.50;5033681;28;20076;-76
2022/06/17 07:46:22;;;;;;;9.52;3.35;;;;;;;24.53;43.04;102202.81;5032976;28;20045;-78
2022/06/17 07:48:50;;;;;;;7.55;3.63;;;;;;;24.60;42.87;102201.44;5032647;28;20038;-78
2022/06/17 07:51:17;;;;;;;8.70;3.50;;;;;;;24.68;42.59;102203.59;5032277;28;20514;-78
2022/06/17 07:53:45;;;;;;;18.42;3.83;;;;;;;24.72;42.66;102211.41;5047996;28;20049;-78
2022/06/17 07:56:15;;;;;;;8.57;3.30;;;;;;;24.68;42.59;102209.88;5050989;28;20050;-77
2022/06/17 07:58:44;;;;;;;7.30;3.10;;;;;;;24.60;42.67;102206.81;5051989;28;20731;-77
2022/06/17 08:01:12;;;;;;;10.38;3.55;;;;;;;24.48;42.90;102209.38;5048831;28;20038;-76
2022/06/17 08:03:41;;;;;;;11.25;3.85;;;;;;;24.49;43.19;102213.81;5051755;28;20065;-77
2022/06/17 08:06:13;;;;;;;4.75;2.92;;;;;;;24.54;43.53;102215.34;5051822;28;20041;-77
2022/06/17 08:08:41;;;;;;;5.28;2.40;;;;;;;24.54;43.29;102210.81;5035930;28;20057;-76
2022/06/17 08:11:09;;;;;;;10.15;3.08;;;;;;;24.68;42.76;102212.56;5034567;28;20097;-76
2022/06/17 08:13:38;;;;;;;7.40;2.78;;;;;;;24.84;42.18;102217.78;5031191;28;20054;-77
2022/06/17 08:16:10;;;;;;;11.80;2.92;;;;;;;24.95;42.36;102212.50;5031276;28;20080;-78
2022/06/17 08:18:39;;;;;;;12.60;3.15;;;;;;;24.95;42.40;102223.28;5035969;28;20042;-77
2022/06/17 08:21:06;;;;;;;6.63;2.90;;;;;;;25.09;41.69;102225.00;5051688;28;20128;-77
2022/06/17 08:23:34;;;;;;;5.05;2.22;;;;;;;25.12;42.57;102226.66;5051628;28;20033;-78
2022/06/17 08:26:01;;;;;;;34.53;5.32;;;;;;;25.20;41.90;102228.78;5047955;28;20561;-75
2022/06/17 08:28:29;;;;;;;7.45;2.42;;;;;;;25.24;42.14;102216.81;5051473;28;20521;-76
2022/06/17 08:30:58;;;;;;;7.15;2.13;;;;;;;25.31;41.58;102218.09;5050842;28;20049;-77
2022/06/17 08:33:29;;;;;;;34.38;5.13;;;;;;;25.36;40.32;102221.34;5051698;28;20077;-77
2022/06/17 08:36:22;;;;;;;27.55;4.30;;;;;;;25.41;39.81;102226.44;5055106;28;20099;-78
2022/06/17 08:39:06;;;;;;;23.50;5.40;;;;;;;25.49;39.45;102225.84;5052477;28;20049;-78
2022/06/17 08:41:37;;;;;;;;;;;;;;;25.51;39.80;102223.91;5048079;28;20121;-78
2022/06/17 08:44:53;;;;;;;15.32;3.15;;;;;;;25.61;39.73;102216.03;5046791;28;19929;-76
2022/06/17 08:47:55;;;;;;;10.15;2.47;;;;;;;25.72;38.07;102218.81;5047878;28;20594;-75
2022/06/17 08:50:28;;;;;;;4.55;2.28;;;;;;;25.77;38.57;102216.59;5040704;28;20054;-76
2022/06/17 08:53:21;;;;;;;22.48;3.53;;;;;;;25.83;38.32;102208.06;5050710;28;20050;-77
2022/06/17 08:56:09;;;;;;;6.88;2.70;;;;;;;25.87;38.57;102208.69;5047962;28;20787;-77
2022/06/17 08:59:05;;;;;;;20.35;3.25;;;;;;;25.95;38.50;102200.00;5054611;28;20041;-77
2022/06/17 09:02:01;;;;;;;7.03;2.75;;;;;;;26.08;38.20;102195.41;5034438;28;20096;-78
2022/06/17 09:05:02;;;;;;;7.50;2.80;;;;;;;26.20;37.32;102197.22;5043412;28;20064;-77
2022/06/17 09:08:07;;;;;;;5.90;2.38;;;;;;;26.23;36.68;102200.69;5054536;28;20045;-78
2022/06/17 09:11:04;;;;;;;13.55;2.63;;;;;;;26.19;37.19;102198.19;5048325;28;20101;-77
2022/06/17 09:13:57;;;;;;;7.72;2.17;;;;;;;26.32;37.60;102202.69;5027725;28;20086;-77
2022/06/17 09:16:39;;;;;;;6.20;2.17;;;;;;;26.42;37.75;102198.28;5054170;28;20795;-77
2022/06/17 09:19:12;;;;;;;10.32;2.55;;;;;;;26.52;36.67;102203.84;5052678;28;20041;-77
2022/06/17 09:21:53;;;;;;;6.38;2.30;;;;;;;26.56;36.26;102202.63;5034722;28;20551;-78
2022/06/17 09:24:28;;;;;;;20.88;3.85;;;;;;;26.63;35.66;102213.84;5034181;28;20042;-77
2022/06/17 09:27:02;;;;;;;8.57;2.28;;;;;;;26.64;34.92;102218.28;5034326;28;20046;-78
2022/06/17 09:29:51;;;;;;;4.97;2.05;;;;;;;26.68;35.50;102214.31;5034059;28;20073;-78
2022/06/17 09:32:28;;;;;;;5.25;1.75;;;;;;;26.77;35.84;102210.06;5033901;28;20101;-78
2022/06/17 09:35:08;;;;;;;42.58;4.75;;;;;;;26.83;35.87;102214.16;5034615;28;20050;-78
2022/06/17 09:37:48;;;;;;;4.88;1.95;;;;;;;26.92;35.94;102208.03;5050248;28;20095;-78
2022/06/17 09:40:29;;;;;;;20.38;2.60;;;;;;;26.99;33.96;102208.41;5034307;28;20516;-78
2022/06/17 09:43:17;;;;;;;13.30;2.50;;;;;;;27.05;34.96;102202.50;5034147;28;20097;-76
2022/06/17 09:46:00;;;;;;;4.65;1.80;;;;;;;27.15;35.13;102198.06;5043548;28;20136;-77
2022/06/17 09:49:14;;;;;;;5.15;1.85;;;;;;;27.23;34.60;102195.59;5053836;28;20903;-77
2022/06/17 09:51:53;;;;;;;3.15;1.95;;;;;;;27.28;33.86;102196.09;5053511;28;20052;-78
2022/06/17 09:54:38;;;;;;;14.35;2.75;;;;;;;27.29;34.49;102199.66;5053497;28;20049;-77
2022/06/17 09:57:12;;;;;;;10.10;1.75;;;;;;;27.33;34.22;102194.84;5053730;28;20510;-76
2022/06/17 09:59:52;;;;;;;4.32;2.00;;;;;;;27.42;34.15;102207.69;5053705;28;20045;-76
2022/06/17 10:02:33;;;;;;;8.75;2.47;;;;;;;27.54;33.61;102201.28;5033539;28;20088;-78
2022/06/17 10:05:16;;;;;;;6.80;1.75;;;;;;;27.62;33.64;102194.38;5033748;28;20567;-76
2022/06/17 10:07:58;;;;;;;7.13;2.10;;;;;;;27.69;33.63;102195.59;5042604;28;20072;-77
2022/06/17 10:10:35;;;;;;;5.35;1.50;;;;;;;27.80;32.76;102189.28;5049689;28;20053;-78
2022/06/17 10:13:28;;;;;;;7.07;1.80;;;;;;;27.90;32.84;102190.22;5053218;28;20067;-76
2022/06/17 10:19:35;;;;;;;5.90;1.80;;;;;;;27.97;31.62;102187.88;5051981;28;20097;-79
2022/06/17 10:22:41;;;;;;;8.50;2.58;;;;;;;28.02;32.49;102177.53;5051696;28;20149;-77
2022/06/17 10:25:48;;;;;;;2.83;1.60;;;;;;;28.16;32.19;102171.81;5053128;28;20076;-79
2022/06/17 10:28:36;;;;;;;4.00;1.65;;;;;;;28.19;32.36;102174.25;5053647;28;20084;-79
2022/06/17 10:31:15;;;;;;;4.63;1.92;;;;;;;28.31;32.48;102175.06;5035306;28;20488;-77
2022/06/17 10:33:44;;;;;;;2.40;1.60;;;;;;;28.39;32.75;102162.72;5042104;28;20467;-78
2022/06/17 10:36:12;;;;;;;5.30;1.70;;;;;;;28.50;31.47;102168.91;5038262;28;20042;-79
2022/06/17 10:38:46;;;;;;;5.60;1.73;;;;;;;28.59;32.21;102174.53;5049147;28;20041;-77
2022/06/17 10:41:16;;;;;;;1.90;1.70;;;;;;;28.63;32.23;102163.28;5038793;28;20038;-77
2022/06/17 10:43:51;;;;;;;5.88;2.33;;;;;;;28.68;31.80;102160.16;5032411;28;20496;-77
2022/06/17 10:46:29;;;;;;;4.07;1.90;;;;;;;28.76;31.55;102151.41;5049146;28;20522;-76
2022/06/17 10:49:16;;;;;;;8.07;1.90;;;;;;;28.86;30.68;102156.84;5053125;28;20507;-77
2022/06/17 10:51:49;;;;;;;8.23;2.38;;;;;;;28.94;30.43;102155.19;5051823;28;20106;-79
2022/06/17 10:54:29;;;;;;;6.00;2.00;;;;;;;29.03;31.06;102158.97;5038151;28;20042;-79
2022/06/17 10:57:09;;;;;;;6.40;2.40;;;;;;;29.13;30.79;102148.13;5044762;28;20046;-77
2022/06/17 10:59:43;;;;;;;4.07;1.83;;;;;;;29.20;30.10;102141.13;5046943;28;20057;-78
2022/06/17 11:02:30;;;;;;;6.68;1.85;;;;;;;29.29;30.95;102143.03;5038290;28;20045;-77
2022/06/17 11:05:04;;;;;;;5.50;1.83;;;;;;;29.42;29.84;102141.94;5035973;28;20058;-77
2022/06/17 11:07:37;;;;;;;9.75;2.20;;;;;;;29.42;29.68;102140.09;5045626;28;20354;-75
2022/06/17 11:10:14;;;;;;;22.67;2.83;;;;;;;29.50;29.02;102133.09;5047779;28;20069;-75
2022/06/17 11:12:56;;;;;;;7.07;2.13;;;;;;;29.54;29.40;102124.53;5051529;28;20046;-75
2022/06/17 11:15:34;;;;;;;13.68;2.13;;;;;;;29.63;29.46;102116.53;5043755;28;20049;-76
2022/06/17 11:18:17;;;;;;;11.32;1.83;;;;;;;29.74;27.30;102117.28;5037800;28;20156;-75
2022/06/17 11:21:02;;;;;;;9.50;2.13;;;;;;;29.85;28.18;102118.13;5034863;28;20045;-76
2022/06/17 11:23:44;;;;;;;8.25;2.67;;;;;;;29.93;27.05;102111.94;5044614;28;20068;-76
2022/06/17 11:26:20;;;;;;;23.13;3.45;;;;;;;29.92;28.28;102121.97;5047573;28;20050;-75
2022/06/17 11:28:54;;;;;;;6.45;2.08;;;;;;;29.98;28.57;102110.56;5047966;28;20496;-77
2022/06/17 11:31:21;;;;;;;3.78;1.98;;;;;;;30.14;27.84;102118.13;5031019;28;20100;-75
2022/06/17 11:33:52;;;;;;;19.02;3.75;;;;;;;30.21;27.98;102115.69;5039391;28;20492;-73
2022/06/17 11:36:33;;;;;;;3.05;1.98;;;;;;;30.24;27.35;102103.66;5039101;28;20431;-74
2022/06/17 11:39:34;;;;;;;5.63;2.33;;;;;;;30.20;28.60;102105.81;5048156;28;20116;-75
2022/06/17 11:42:24;;;;;;;5.60;2.00;;;;;;;30.25;28.61;102103.53;5052094;28;20535;-75
2022/06/17 11:45:05;;;;;;;3.33;1.40;;;;;;;30.33;27.80;102092.75;5046217;28;20559;-74
2022/06/17 11:47:35;;;;;;;32.35;3.10;;;;;;;30.42;28.19;102092.88;5051977;28;20042;-74
2022/06/17 11:50:25;;;;;;;5.47;1.70;;;;;;;30.56;28.01;102089.72;5051870;28;20044;-74
2022/06/17 11:53:05;;;;;;;7.07;2.05;;;;;;;30.66;26.70;102078.78;5048589;28;20053;-75
2022/06/17 11:55:45;;;;;;;5.10;1.73;;;;;;;30.76;27.30;102079.59;5041489;28;20034;-75
2022/06/17 11:58:33;;;;;;;11.98;2.10;;;;;;;30.85;26.79;102068.81;5034366;28;20550;-74
2022/06/17 12:01:15;;;;;;;8.48;1.50;;;;;;;30.93;26.35;102075.22;5042105;28;20512;-73
2022/06/17 12:03:45;;;;;;;35.05;3.40;;;;;;;30.97;27.39;102073.06;5041743;28;20531;-74
2022/06/17 12:06:29;;;;;;;4.35;1.90;;;;;;;31.07;26.37;102073.00;5043409;28;20523;-75
2022/06/17 12:09:04;;;;;;;5.93;2.15;;;;;;;31.06;26.50;102066.69;5033804;28;20034;-74
2022/06/17 12:12:16;;;;;;;5.53;2.13;;;;;;;31.09;27.46;102068.25;5050415;28;20064;-75
2022/06/17 12:15:17;;;;;;;7.70;2.30;;;;;;;31.13;27.54;102073.28;5034416;28;20058;-75
2022/06/17 12:17:50;;;;;;;4.65;1.70;;;;;;;31.26;27.40;102051.13;5036768;28;20046;-74
2022/06/17 12:20:17;;;;;;;6.47;2.20;;;;;;;31.35;26.52;102051.22;5014498;28;20069;-71
2022/06/17 12:22:58;;;;;;;6.47;1.80;;;;;;;31.44;26.86;102040.22;5008503;28;20046;-73
2022/06/17 12:26:01;;;;;;;5.65;1.35;;;;;;;31.60;27.04;102035.94;5019428;28;20090;-74